首页
METAR-TAF:

METAR-TAF

机场 :

格兰茨帕斯

Sexton Summit, 俄勒冈州, 美国

纬度: 42-36-01N, 经度: 123-21-51W, 海拔: 0米

当前天气观测

该预报发布于48分钟前的01:56 UTC
风速10节,风向,有时为16节阵风
温度 4°C
湿度 93%
气压 1021 hPa
能見度: 0.4公里

METAR: KSXT 230156Z AUTO 18010G16KT 1/4SM FG VV001 04/03 A3014 RMK AO2 SLP222 T00390033

时间: 18:44 (02:44 UTC)


TAF: 丢失

超过4000个机场的气象观测和天气预报(METAR&TAF报告)。

可查询的气象台以黄色和红色小点在地图上表示。

将鼠标移到小点上方,可查看气象台名称。

然后点击查看天气观测和预报。

如需切换地图:点击带黑十字的绿色按钮放大地图;点击带横线的绿色按钮缩小地图;或者点击绿色箭头查看邻近地区的地图。


METAR-TAF: